18ème Rallye National Terre de Langres
Championnat de France des Rallyes sur Terre
1 4 MAURIN Julien/URAL Olivier Citroën DS3 WRC A 8W 29:36,0 1
2 5 TRON Noel/OBRECHT Justine Citroën DS3 WRC A 8W 29:41,8 +00:05,8 +00:05,8 1
3 2 DURBEC Thibault/RENUCCI Jacques-Julien Citroën DS3 WRC A 8W 30:10,8 +00:34,8 +00:29,0 1
4 3 CUOQ Jean-Marie/GRANDEMANGE Marielle Citroën C4 WRC FA 8W 30:35,1 +00:59,1 +00:24,3 1
5 9 AMOURETTE Marc/MARIE Gwenola Citroën DS3 R5 R 5 30:48,7 +01:12,7 +00:13,6
6 7 FERAUD Cyrille/DUCHEMIN Aymeric Citroën C4 WRC FA 8W 31:20,4 +01:44,4 +00:31,7 1
7 1 BERFA Jordan/AUGUSTIN Damien HUYNDAI i20 R5 R 5 31:48,8 +02:12,8 +00:28,4 1
8 6 BAUD Lionel/SERRE Pascal Ford Focus WRC FA 8W 32:15,9 +02:39,9 +00:27,1 1
9 8 MORDACQ Arnaud/RATIER Marie-Noelle Mitsubishi Lancer Evo9 FN 4 32:19,1 +02:43,1 +00:03,2 1
10 14 CECCHI Philippe/LETOURNEAU Lara Citroën DS3 R5 R 5 33:43,3 +04:07,3 +01:24,2
11 16 PELUTTIERO Thibaud/REICHENECKER Josh Mitsubishi Lancer EvoX R 4 34:25,7 +04:49,7 +00:42,4 1
12 19 CHAYNES Gary/TRIBOUT Christian Mitsubishi Lancer Evo6 FA 8 34:30,3 +04:54,3 +00:04,6 1
13 39 MASCLAUX Arnaud/MOULIN Alexandre Renault Clio Ragnotti F2 14 34:39,2 +05:03,2 +00:08,9 1 2
14 25 MOREL Jean-Luc/GIDEL Philippe Subaru Impreza WRX FN 4 34:45,7 +05:09,7 +00:06,5
15 23 BENIER Thomas/PRASSE Cédric Subaru Impreza WRX N 4 34:54,7 +05:18,7 +00:09,0 1
16 31 COLNEY Thierry/FORTMANN Patrick Citroën DS3 R3 R 3 35:02,8 +05:26,8 +00:08,1 1 2
17 62 CHALAL Theo/LE FLOCH Franck Ford Fiesta R2J R 2 35:30,0 +05:54,0 +00:27,2 4
18 30 ASTIER Loïc/DECLERCK Loïc Citroën DS3 R3 R 3 35:38,6 +06:02,6 +00:08,6 1 2
19 54 MARGAILLAN Hugo/POUJOL Sébastien Ford Fiesta R2J R 2 35:40,0 +06:04,0 +00:01,4 4
20 26 DELOY David/OGIER Cédric Mitsubishi Lancer EvoX N 4 35:40,6 +06:04,6 +00:00,6
21 42 FRANCESCHI Jean-Baptiste/COURBON Romain Ford Fiesta R2J R 2 35:41,1 +06:05,1 +00:00,5 4
22 66 CACHOD Sylvain/POURCELOT Aurélien Citroën C2 R2 R 2 35:45,3 +06:09,3 +00:04,2
23 18 SALIN Daniel/SALIN Brigitte Subaru Impreza WRX R 4 35:50,1 +06:14,1 +00:04,8
24 38 JULIA David/AUBERTIN Ludovic Peugeot 206 Rc F2 14 35:50,5 +06:14,5 +00:00,4 1 2
25 57 CARTIER Victor/CRAEN Fabien Ford Fiesta R2J R 2 35:52,9 +06:16,9 +00:02,4 4
26 20 GAIDOZ Hervé/RICHARD François Subaru Impreza WRX FA 8 35:59,6 +06:23,6 +00:06,7 1
27 48 JOUINES Jean/CHABBERT Martin Ford Fiesta R2J R 2 36:00,7 +06:24,7 +00:01,1 4
28 61 CORNU Alexandre/FASSOLA Thibault Ford Fiesta R2J R 2 36:03,4 +06:27,4 +00:02,7 4
29 43 DI FANTE Romain/TEMPIER Romain Ford Fiesta R2J R 2 36:12,8 +06:36,8 +00:09,4 4
30 37 GUINCHARD Emmanuel/CHATELAIN Mickaël Peugeot 207 Rc R 3 36:22,3 +06:46,3 +00:09,5
31 40 VITAL Jean-Pierre/YVERNAULT Eric Citroën Saxo VTS F2 13 36:23,9 +06:47,9 +00:01,6 1 2
32 63 MOLLARD Alexandre/EYMIN Nicolas Peugeot 208 VTI R 2 36:31,0 +06:55,0 +00:07,1
33 12 BESSON Jean-Pascal/ROISSAC Patrice Skoda Fabia R5 R 5 36:32,6 +06:56,6 +00:01,6 1
34 35 FRANCE Julien/MAZARGUIL Philippe Citroën DS3 R3 R 3 36:39,9 +07:03,9 +00:07,3
35 45 FOURMAUX Adrien/FOURMAUX Maxime Ford Fiesta R2J R 2 36:42,7 +07:06,7 +00:02,8 4
36 49 GOUPIL Jocerand/CIANFARANI Anthoni Ford Fiesta R2J R 2 36:52,2 +07:16,2 +00:09,5 4
37 24 MARTI Christian/LAVIALE Jean-Marc Mitsubishi Lancer Evo9 FN 4 36:54,0 +07:18,0 +00:01,8 1
38 64 GUIBERT Jean-Christophe/GRACIAL Laurent Ford Fiesta R2 R 2 36:55,8 +07:19,8 +00:01,8
39 44 BOULENC Benjamin/DOS REIS Sébastien Ford Fiesta R2J R 2 36:56,4 +07:20,4 +00:00,6 4
40 51 MOUSTIN Doriann/DESNOYER Alexia Ford Fiesta R2J R 2 37:01,4 +07:25,4 +00:05,0 4
41 41 SABATIER Florent/SANTIAGO Thomas Peugeot 106 S16 FA 6 37:06,1 +07:30,1 +00:04,7 1 2
42 52 GIUSTI Igor/DINI Gilbert Ford Fiesta R2J R 2 37:16,1 +07:40,1 +00:10,0 4
43 65 FRANCESCHI Mathieu/BELHACENE Matthieu Citroën C2 R2 R 2 37:21,2 +07:45,2 +00:05,1
44 47 CHANTRIAUX Audric/PEREZ Laëtitia Ford Fiesta R2J R 2 37:21,6 +07:45,6 +00:00,4 4
45 55 PONTAL Julien/BARRAL Florian Ford Fiesta R2J R 2 37:25,6 +07:49,6 +00:04,0 4
46 53 GANDELLI David/BIAGETTI Loan Ford Fiesta R2J R 2 37:30,3 +07:54,3 +00:04,7 4
47 85 GERMAIN Alex/POIROT Edgard Peugeot 205 GTI F2 13 37:46,6 +08:10,6 +00:16,3
48 69 QUARROZ Damien/VOLPI Cécile Citroën Saxo T4 FA 6K 37:49,1 +08:13,1 +00:02,5
49 32 JOUINES Rémi/MAHEO Arnaud Peugeot 207 Rc R 3 37:53,3 +08:17,3 +00:04,2 1 2
50 78 RAYNAUD Gabriel/JULIEN William Seat Ibiza GTI F2 14 37:58,7 +08:22,7 +00:05,4 1 2
51 88 BRISSON Eddy/MASSON Pascal Suzuki Swift Sport FN 2 38:05,6 +08:29,6 +00:06,9
52 68 PAILLER Julien/HENQUINET Sébastien Citroën Saxo T4 FA 6K 38:06,7 +08:30,7 +00:01,1
53 75 LAGIER Fabrice/DUPONT Romuald Peugeot 306 S16 FA 7 38:13,2 +08:37,2 +00:06,5
54 90 BERTHOD Loïc/JOSSERAND Alexis Citroën Saxo VTS FN 2 38:15,8 +08:39,8 +00:02,6
55 71 COLOMBE Geoffroy/FABREGUE Régis Peugeot 206 XS FA 6K 38:22,7 +08:46,7 +00:06,9
56 74 TATIN Xavier/BAUMET Eddie Peugeot 306 S16 FA 7 38:33,2 +08:57,2 +00:10,5
57 60 EMANUEL Maxence/DALMASSO Pauline Ford Fiesta R2J R 2 38:33,9 +08:57,9 +00:00,7 4
58 84 FOURNIER Nicolas/VATTEAU Kévin Peugeot 206 XS F2 13 38:46,7 +09:10,7 +00:12,8 1 2
59 27 PRIOLO Laurent/PRIOLO Cindy Mitsubishi Lancer Evo9 FN 4 39:05,0 +09:29,0 +00:18,3
60 29 DAZY Jean-Pierre/LOIZEAUX Didier Renault Clio R3 R 3 39:13,5 +09:37,5 +00:08,5 1 2
61 50 CURIOZ Benjamin/BEERENS Pierre Ford Fiesta R2J R 2 39:15,2 +09:39,2 +00:01,7 4
62 94 VUITTENEZ Victorien/COTE COLISSON Maxime Peugeot 106 XSI FN 1 39:25,7 +09:49,7 +00:10,5
63 33 BOUCHET Guillaume/BLAMPEY Fabien Peugeot 207 Rc R 3 39:45,3 +10:09,3 +00:19,6
64 82 DUCLAUX Julien/AMALBERTI Cédric Peugeot 206 Rc FN 3 39:47,6 +10:11,6 +00:02,3
65 36 SPART Patrick/CATTIN Charline Peugeot 207 Rc R 3 39:55,6 +10:19,6 +00:08,0
66 56 VIAROUGE David/BENZAL Aurélien Ford Fiesta R2J R 2 40:07,5 +10:31,5 +00:11,9 4
67 87 MOUGIN Jules/ROUMETTE Clemence Peugeot 106 Rallye FA 5 40:30,0 +10:54,0 +00:22,5
68 80 REYNAUD Yvan/SCHWARTZ Eric Opel Manta GTE F2 14 41:02,1 +11:26,1 +00:32,1
69 70 BRENIAUX Sébastien/JACQUES Anthony Peugeot 206 XS FA 6K 41:08,7 +11:32,7 +00:06,6
70 58 VIANO Allison/CHOL Cecilia Ford Fiesta R2J R 2 42:01,5 +12:25,5 +00:52,8 4
71 81 VIDAL Marc/MONTARON Loïc Peugeot 309 GTI 16S F2 14 42:30,1 +12:54,1 +00:28,6
72 79 CLEMENT Frédéric/COSTES François Peugeot 206 Rc F2 14 42:37,5 +13:01,5 +00:07,4 1 2
73 89 DOLGOPYATOFF Damien/PERRIN Christelle Suzuki Swift Sport FN 2 42:45,7 +13:09,7 +00:08,2
74 77 STUDER Maude/STUDER Sébastien Peugeot 206 GT FA 7 43:12,0 +13:36,0 +00:26,3
75 22 GLEY Jean-Pierre/JEUDY Nicolas B.M.W. 325 iX FA 8 44:14,9 +14:38,9 +01:02,9
76 95 FAUR Yoann/MASSON Kévin Peugeot 205 Rallye FN 1 44:23,3 +14:47,3 +00:08,4
77 72 FETY Fabrice/ROLLION Thomas Peugeot 206 XS FA 6K 44:25,9 +14:49,9 +00:02,6
78 86 MAUVAIS Michel/PY Jean-Michel Peugeot 205 Rallye FA 5 45:19,0 +15:43,0 +00:53,1
79 92 FRANCOIS Léa/FRANCOIS Solene Peugeot 106 S16 FN 2 45:51,6 +16:15,6 +00:32,6
80 76 VERRY Vanessa/OUVRY Eleonore Peugeot 206 Rc FA 7 46:16,9 +16:40,9 +00:25,3
81 91 DI PAOLO Alain/MORILLON Frederika Peugeot 106 S16 FN 2 47:21,5 +17:45,5 +01:04,6
82 15 FALCO Jean-Marc/BOUERI Jonathan Mitsubishi Lancer Evo9 R 4 47:25,3 +17:49,3 +00:03,8 1
83 93 BRAQUET Jean-Baptiste/BRAQUET Elyse Peugeot 106 XSI FN 1 48:01,4 +18:25,4 +00:36,1
84 73 SOUFFEZ Frédéric/PRUVOST Astrid Peugeot 206 Rc FA 7 50:44,8 +21:08,8 +02:43,4 1 2
Clt Equipage Voiture Gr/Cl Temps Ecart 1er Ecart préc. Catégories
Commentaires: © PatricK Soft  
(Temps forfaitaires=couleur bleue)
Classés:84

Epreuve: Groupe: Catégorie:

 
Retour
Classement après ES4-Aprey - Flagey (12.000 km)